sensor_id;sensor_type;location;lat;lon;timestamp;pressure;altitude;pressure_sealevel;temperature;humidity
73633;BME280;61927;50.080;14.418;2022-09-23T00:00:36;100008.03;;;8.23;79.79
73633;BME280;61927;50.080;14.418;2022-09-23T00:03:21;100009.81;;;8.23;79.75
73633;BME280;61927;50.080;14.418;2022-09-23T00:05:56;100013.38;;;8.22;79.86
73633;BME280;61927;50.080;14.418;2022-09-23T00:08:22;100008.56;;;8.31;79.38
73633;BME280;61927;50.080;14.418;2022-09-23T00:10:48;100006.84;;;8.30;79.26
73633;BME280;61927;50.080;14.418;2022-09-23T00:13:15;100014.84;;;8.29;79.22
73633;BME280;61927;50.080;14.418;2022-09-23T00:15:40;100010.41;;;8.29;79.49
73633;BME280;61927;50.080;14.418;2022-09-23T00:18:06;100010.53;;;8.26;79.47
73633;BME280;61927;50.080;14.418;2022-09-23T00:20:34;100011.41;;;8.27;79.66
73633;BME280;61927;50.080;14.418;2022-09-23T00:23:00;100001.69;;;8.27;79.42
73633;BME280;61927;50.080;14.418;2022-09-23T00:25:26;99998.25;;;8.25;79.56
73633;BME280;61927;50.080;14.418;2022-09-23T00:27:54;100001.81;;;8.24;79.38
73633;BME280;61927;50.080;14.418;2022-09-23T00:30:20;100002.81;;;8.22;79.45
73633;BME280;61927;50.080;14.418;2022-09-23T00:32:47;100001.94;;;8.21;79.59
73633;BME280;61927;50.080;14.418;2022-09-23T00:35:14;99993.16;;;8.21;79.53
73633;BME280;61927;50.080;14.418;2022-09-23T00:37:39;99997.59;;;8.20;79.20
73633;BME280;61927;50.080;14.418;2022-09-23T00:40:05;100003.81;;;8.19;79.44
73633;BME280;61927;50.080;14.418;2022-09-23T00:42:33;100002.16;;;8.17;79.63
73633;BME280;61927;50.080;14.418;2022-09-23T00:44:59;100001.34;;;8.15;79.53
73633;BME280;61927;50.080;14.418;2022-09-23T00:47:43;99991.63;;;8.15;79.37
73633;BME280;61927;50.080;14.418;2022-09-23T00:50:25;99989.00;;;8.15;79.67
73633;BME280;61927;50.080;14.418;2022-09-23T00:52:56;99996.13;;;8.13;79.47
73633;BME280;61927;50.080;14.418;2022-09-23T00:55:26;100000.56;;;8.13;79.78
73633;BME280;61927;50.080;14.418;2022-09-23T00:57:55;99993.50;;;8.13;79.64
73633;BME280;61927;50.080;14.418;2022-09-23T01:00:23;99988.00;;;8.18;79.56
73633;BME280;61927;50.080;14.418;2022-09-23T01:02:49;99980.66;;;8.24;79.01
73633;BME280;61927;50.080;14.418;2022-09-23T01:05:15;99984.09;;;8.26;78.75
73633;BME280;61927;50.080;14.418;2022-09-23T01:07:42;99982.53;;;8.22;79.11
73633;BME280;61927;50.080;14.418;2022-09-23T01:10:09;99978.94;;;8.23;78.82
73633;BME280;61927;50.080;14.418;2022-09-23T01:15:32;99990.13;;;8.09;79.49
73633;BME280;61927;50.080;14.418;2022-09-23T01:20:57;99988.53;;;8.05;79.46
73633;BME280;61927;50.080;14.418;2022-09-23T01:26:57;99984.44;;;7.98;79.46
73633;BME280;61927;50.080;14.418;2022-09-23T01:34:36;99981.13;;;7.93;79.42
73633;BME280;61927;50.080;14.418;2022-09-23T01:39:41;99970.63;;;7.92;79.31
73633;BME280;61927;50.080;14.418;2022-09-23T01:42:22;99978.50;;;7.93;79.42
73633;BME280;61927;50.080;14.418;2022-09-23T01:44:56;99967.84;;;7.95;79.04
73633;BME280;61927;50.080;14.418;2022-09-23T01:47:29;99966.72;;;8.00;78.75
73633;BME280;61927;50.080;14.418;2022-09-23T01:50:21;99964.88;;;8.02;78.18
73633;BME280;61927;50.080;14.418;2022-09-23T01:53:13;99969.63;;;7.94;77.69
73633;BME280;61927;50.080;14.418;2022-09-23T01:55:47;99972.88;;;7.81;78.37
73633;BME280;61927;50.080;14.418;2022-09-23T01:58:20;99972.41;;;7.71;78.64
73633;BME280;61927;50.080;14.418;2022-09-23T02:01:22;99975.16;;;7.68;79.04
73633;BME280;61927;50.080;14.418;2022-09-23T02:03:58;99966.06;;;7.75;78.81
73633;BME280;61927;50.080;14.418;2022-09-23T02:06:47;99970.28;;;7.79;78.21
73633;BME280;61927;50.080;14.418;2022-09-23T02:09:20;99962.31;;;7.81;78.78
73633;BME280;61927;50.080;14.418;2022-09-23T02:11:47;99963.81;;;7.86;78.43
73633;BME280;61927;50.080;14.418;2022-09-23T02:14:23;99966.34;;;7.89;78.40
73633;BME280;61927;50.080;14.418;2022-09-23T02:16:55;99967.19;;;7.90;77.72
73633;BME280;61927;50.080;14.418;2022-09-23T02:19:33;99965.72;;;7.83;77.71
73633;BME280;61927;50.080;14.418;2022-09-23T02:22:11;99971.09;;;7.81;78.53
73633;BME280;61927;50.080;14.418;2022-09-23T02:24:38;99966.00;;;7.76;78.58
73633;BME280;61927;50.080;14.418;2022-09-23T02:30:14;99971.47;;;7.72;78.18
73633;BME280;61927;50.080;14.418;2022-09-23T02:35:33;99964.34;;;7.74;78.47
73633;BME280;61927;50.080;14.418;2022-09-23T02:38:28;99964.09;;;7.80;78.42
73633;BME280;61927;50.080;14.418;2022-09-23T02:43:34;99961.38;;;7.82;77.87
73633;BME280;61927;50.080;14.418;2022-09-23T02:46:04;99958.47;;;7.88;77.77
73633;BME280;61927;50.080;14.418;2022-09-23T02:48:40;99958.59;;;7.85;77.83
73633;BME280;61927;50.080;14.418;2022-09-23T02:51:08;99955.97;;;7.85;77.99
73633;BME280;61927;50.080;14.418;2022-09-23T02:53:34;99953.25;;;7.86;77.74
73633;BME280;61927;50.080;14.418;2022-09-23T02:56:01;99955.91;;;7.86;77.74
73633;BME280;61927;50.080;14.418;2022-09-23T02:58:27;99955.16;;;7.83;78.10
73633;BME280;61927;50.080;14.418;2022-09-23T03:10:01;99947.56;;;7.75;78.56
73633;BME280;61927;50.080;14.418;2022-09-23T03:17:42;99945.19;;;7.69;78.72
73633;BME280;61927;50.080;14.418;2022-09-23T03:20:41;99947.88;;;7.67;78.79
73633;BME280;61927;50.080;14.418;2022-09-23T03:23:11;99945.25;;;7.67;79.03
73633;BME280;61927;50.080;14.418;2022-09-23T03:25:41;99940.75;;;7.69;78.55
73633;BME280;61927;50.080;14.418;2022-09-23T03:28:09;99943.34;;;7.71;79.06
73633;BME280;61927;50.080;14.418;2022-09-23T03:30:36;99946.09;;;7.68;78.65
73633;BME280;61927;50.080;14.418;2022-09-23T03:33:05;99941.03;;;7.63;78.86
73633;BME280;61927;50.080;14.418;2022-09-23T03:35:34;99938.06;;;7.71;78.94
73633;BME280;61927;50.080;14.418;2022-09-23T03:38:23;99932.63;;;7.74;78.59
73633;BME280;61927;50.080;14.418;2022-09-23T03:40:51;99928.81;;;7.81;78.48
73633;BME280;61927;50.080;14.418;2022-09-23T03:43:20;99942.09;;;7.80;78.27
73633;BME280;61927;50.080;14.418;2022-09-23T03:45:46;99928.09;;;7.77;78.24
73633;BME280;61927;50.080;14.418;2022-09-23T03:48:11;99916.53;;;7.80;77.65
73633;BME280;61927;50.080;14.418;2022-09-23T03:50:39;99917.59;;;7.76;77.60
73633;BME280;61927;50.080;14.418;2022-09-23T03:53:05;99926.31;;;7.78;77.43
73633;BME280;61927;50.080;14.418;2022-09-23T03:55:32;99919.38;;;7.75;77.13
73633;BME280;61927;50.080;14.418;2022-09-23T03:57:57;99918.50;;;7.75;77.22
73633;BME280;61927;50.080;14.418;2022-09-23T04:00:24;99924.06;;;7.69;77.32
73633;BME280;61927;50.080;14.418;2022-09-23T04:02:50;99921.59;;;7.64;77.59
73633;BME280;61927;50.080;14.418;2022-09-23T04:05:16;99920.75;;;7.64;77.64
73633;BME280;61927;50.080;14.418;2022-09-23T04:07:42;99918.38;;;7.58;77.90
73633;BME280;61927;50.080;14.418;2022-09-23T04:10:08;99915.78;;;7.56;77.93
73633;BME280;61927;50.080;14.418;2022-09-23T04:12:34;99909.59;;;7.57;77.78
73633;BME280;61927;50.080;14.418;2022-09-23T04:15:00;99914.72;;;7.60;78.28
73633;BME280;61927;50.080;14.418;2022-09-23T04:17:26;99915.41;;;7.65;77.72
73633;BME280;61927;50.080;14.418;2022-09-23T04:19:51;99907.53;;;7.64;77.58
73633;BME280;61927;50.080;14.418;2022-09-23T04:22:17;99910.81;;;7.49;78.18
73633;BME280;61927;50.080;14.418;2022-09-23T04:24:42;99908.38;;;7.44;78.09
73633;BME280;61927;50.080;14.418;2022-09-23T04:27:08;99902.44;;;7.39;78.37
73633;BME280;61927;50.080;14.418;2022-09-23T04:29:33;99903.47;;;7.35;78.34
73633;BME280;61927;50.080;14.418;2022-09-23T04:31:59;99902.88;;;7.28;78.27
73633;BME280;61927;50.080;14.418;2022-09-23T04:34:25;99899.31;;;7.29;78.63
73633;BME280;61927;50.080;14.418;2022-09-23T04:36:51;99894.03;;;7.29;78.25
73633;BME280;61927;50.080;14.418;2022-09-23T04:39:16;99896.69;;;7.29;78.66
73633;BME280;61927;50.080;14.418;2022-09-23T04:41:43;99893.97;;;7.31;78.43
73633;BME280;61927;50.080;14.418;2022-09-23T04:44:10;99893.06;;;7.32;78.46
73633;BME280;61927;50.080;14.418;2022-09-23T04:46:36;99895.03;;;7.27;78.71
73633;BME280;61927;50.080;14.418;2022-09-23T04:49:02;99900.25;;;7.28;78.88
73633;BME280;61927;50.080;14.418;2022-09-23T04:51:28;99895.63;;;7.33;78.94
73633;BME280;61927;50.080;14.418;2022-09-23T04:53:54;99900.19;;;7.30;78.18
73633;BME280;61927;50.080;14.418;2022-09-23T04:56:25;99897.72;;;7.25;78.43
73633;BME280;61927;50.080;14.418;2022-09-23T04:58:51;99904.78;;;7.25;78.72
73633;BME280;61927;50.080;14.418;2022-09-23T05:01:25;99892.69;;;7.19;78.76
73633;BME280;61927;50.080;14.418;2022-09-23T05:03:53;99898.97;;;7.17;78.50
73633;BME280;61927;50.080;14.418;2022-09-23T05:06:20;99902.78;;;7.09;78.74
73633;BME280;61927;50.080;14.418;2022-09-23T05:08:48;99914.31;;;7.07;78.72
73633;BME280;61927;50.080;14.418;2022-09-23T05:11:13;99909.88;;;7.07;78.73
73633;BME280;61927;50.080;14.418;2022-09-23T05:13:39;99909.63;;;7.13;78.35
73633;BME280;61927;50.080;14.418;2022-09-23T05:16:06;99909.75;;;7.10;78.41
73633;BME280;61927;50.080;14.418;2022-09-23T05:18:34;99907.44;;;7.03;78.25
73633;BME280;61927;50.080;14.418;2022-09-23T05:21:00;99916.34;;;7.00;78.71
73633;BME280;61927;50.080;14.418;2022-09-23T05:23:27;99909.88;;;7.07;77.45
73633;BME280;61927;50.080;14.418;2022-09-23T05:26:04;99906.75;;;7.20;76.75
73633;BME280;61927;50.080;14.418;2022-09-23T05:28:31;99921.72;;;7.19;76.81
73633;BME280;61927;50.080;14.418;2022-09-23T05:31:10;99912.22;;;7.15;77.08
73633;BME280;61927;50.080;14.418;2022-09-23T05:33:41;99914.13;;;7.11;77.09
73633;BME280;61927;50.080;14.418;2022-09-23T05:36:06;99926.53;;;7.09;77.29
73633;BME280;61927;50.080;14.418;2022-09-23T05:38:32;99921.53;;;7.02;77.13
73633;BME280;61927;50.080;14.418;2022-09-23T05:41:03;99925.53;;;6.90;77.69
73633;BME280;61927;50.080;14.418;2022-09-23T05:43:29;99930.13;;;6.85;77.83
73633;BME280;61927;50.080;14.418;2022-09-23T05:46:16;99922.28;;;6.84;77.96
73633;BME280;61927;50.080;14.418;2022-09-23T05:48:42;99919.44;;;6.88;77.39
73633;BME280;61927;50.080;14.418;2022-09-23T05:51:20;99918.41;;;6.92;76.95
73633;BME280;61927;50.080;14.418;2022-09-23T05:53:46;99923.56;;;6.95;76.72
73633;BME280;61927;50.080;14.418;2022-09-23T05:56:16;99921.34;;;6.85;76.84
73633;BME280;61927;50.080;14.418;2022-09-23T05:58:43;99920.63;;;6.81;77.10
73633;BME280;61927;50.080;14.418;2022-09-23T06:01:19;99921.59;;;6.78;77.13
73633;BME280;61927;50.080;14.418;2022-09-23T06:03:46;99926.06;;;6.76;77.65
73633;BME280;61927;50.080;14.418;2022-09-23T06:06:13;99929.25;;;6.85;76.99
73633;BME280;61927;50.080;14.418;2022-09-23T06:09:00;99921.28;;;6.86;77.06
73633;BME280;61927;50.080;14.418;2022-09-23T06:11:28;99926.69;;;6.83;77.20
73633;BME280;61927;50.080;14.418;2022-09-23T06:13:55;99928.94;;;6.70;77.56
73633;BME280;61927;50.080;14.418;2022-09-23T06:16:24;99935.38;;;6.63;77.84
73633;BME280;61927;50.080;14.418;2022-09-23T06:18:49;99928.59;;;6.56;77.70
73633;BME280;61927;50.080;14.418;2022-09-23T06:21:16;99932.38;;;6.49;78.36
73633;BME280;61927;50.080;14.418;2022-09-23T06:23:43;99928.91;;;6.48;77.94
73633;BME280;61927;50.080;14.418;2022-09-23T06:26:10;99934.41;;;6.42;79.06
73633;BME280;61927;50.080;14.418;2022-09-23T06:28:38;99931.06;;;6.37;79.08
73633;BME280;61927;50.080;14.418;2022-09-23T06:31:06;99932.16;;;6.32;78.88
73633;BME280;61927;50.080;14.418;2022-09-23T06:33:34;99942.75;;;6.30;79.34
73633;BME280;61927;50.080;14.418;2022-09-23T06:36:01;99938.28;;;6.32;78.98
73633;BME280;61927;50.080;14.418;2022-09-23T06:38:28;99935.53;;;6.35;78.92
73633;BME280;61927;50.080;14.418;2022-09-23T06:40:56;99938.22;;;6.34;79.11
73633;BME280;61927;50.080;14.418;2022-09-23T06:43:23;99940.19;;;6.29;79.93
73633;BME280;61927;50.080;14.418;2022-09-23T06:45:58;99934.09;;;6.27;80.59
73633;BME280;61927;50.080;14.418;2022-09-23T06:48:24;99932.72;;;6.40;80.02
73633;BME280;61927;50.080;14.418;2022-09-23T06:50:51;99931.41;;;6.52;80.37
73633;BME280;61927;50.080;14.418;2022-09-23T06:53:19;99937.38;;;6.57;80.10
73633;BME280;61927;50.080;14.418;2022-09-23T06:55:48;99937.09;;;6.64;79.58
73633;BME280;61927;50.080;14.418;2022-09-23T06:58:21;99934.47;;;6.86;79.30
73633;BME280;61927;50.080;14.418;2022-09-23T07:00:47;99931.13;;;7.04;77.97
73633;BME280;61927;50.080;14.418;2022-09-23T07:03:12;99938.59;;;7.15;77.50
73633;BME280;61927;50.080;14.418;2022-09-23T07:05:39;99936.47;;;7.25;77.08
73633;BME280;61927;50.080;14.418;2022-09-23T07:08:08;99935.16;;;7.35;77.13
73633;BME280;61927;50.080;14.418;2022-09-23T07:10:36;99940.94;;;7.44;76.50
73633;BME280;61927;50.080;14.418;2022-09-23T07:13:03;99938.81;;;7.53;76.01
73633;BME280;61927;50.080;14.418;2022-09-23T07:15:28;99942.81;;;7.63;75.40
73633;BME280;61927;50.080;14.418;2022-09-23T07:17:55;99939.16;;;7.65;74.99
73633;BME280;61927;50.080;14.418;2022-09-23T07:20:20;99942.41;;;7.72;75.55
73633;BME280;61927;50.080;14.418;2022-09-23T07:22:49;99938.47;;;7.82;74.90
73633;BME280;61927;50.080;14.418;2022-09-23T07:25:20;99943.34;;;7.91;74.43
73633;BME280;61927;50.080;14.418;2022-09-23T07:27:46;99940.25;;;8.02;73.86
73633;BME280;61927;50.080;14.418;2022-09-23T07:30:13;99945.19;;;8.09;73.54
73633;BME280;61927;50.080;14.418;2022-09-23T07:32:39;99940.63;;;8.13;73.97
73633;BME280;61927;50.080;14.418;2022-09-23T07:35:06;99942.53;;;8.09;73.59
73633;BME280;61927;50.080;14.418;2022-09-23T07:37:32;99949.81;;;8.04;74.30
73633;BME280;61927;50.080;14.418;2022-09-23T07:39:57;99940.75;;;8.10;73.95
73633;BME280;61927;50.080;14.418;2022-09-23T07:42:23;99945.16;;;8.30;73.76
73633;BME280;61927;50.080;14.418;2022-09-23T07:44:48;99955.09;;;8.45;73.50
73633;BME280;61927;50.080;14.418;2022-09-23T07:47:14;99948.38;;;8.57;72.59
73633;BME280;61927;50.080;14.418;2022-09-23T07:49:41;99948.25;;;8.60;72.40
73633;BME280;61927;50.080;14.418;2022-09-23T07:52:06;99953.25;;;8.66;72.81
73633;BME280;61927;50.080;14.418;2022-09-23T07:54:32;99954.41;;;8.79;72.00
73633;BME280;61927;50.080;14.418;2022-09-23T07:56:58;99954.63;;;8.93;72.12
73633;BME280;61927;50.080;14.418;2022-09-23T07:59:24;99956.53;;;9.09;71.70
73633;BME280;61927;50.080;14.418;2022-09-23T08:01:52;99963.19;;;9.17;71.31
73633;BME280;61927;50.080;14.418;2022-09-23T08:04:27;99956.09;;;9.18;70.48
73633;BME280;61927;50.080;14.418;2022-09-23T08:07:04;99957.97;;;9.16;70.99
73633;BME280;61927;50.080;14.418;2022-09-23T08:09:35;99947.09;;;9.03;71.69
73633;BME280;61927;50.080;14.418;2022-09-23T08:12:08;99941.38;;;8.93;71.92
73633;BME280;61927;50.080;14.418;2022-09-23T08:14:33;99944.09;;;8.73;72.16
73633;BME280;61927;50.080;14.418;2022-09-23T08:16:59;99941.31;;;8.57;72.86
73633;BME280;61927;50.080;14.418;2022-09-23T08:19:25;99939.00;;;8.50;73.25
73633;BME280;61927;50.080;14.418;2022-09-23T08:21:51;99934.06;;;8.42;73.80
73633;BME280;61927;50.080;14.418;2022-09-23T08:24:19;99937.66;;;8.41;74.30
73633;BME280;61927;50.080;14.418;2022-09-23T08:26:46;99932.34;;;8.41;74.25
73633;BME280;61927;50.080;14.418;2022-09-23T08:29:14;99930.50;;;8.43;74.13
73633;BME280;61927;50.080;14.418;2022-09-23T08:31:39;99931.22;;;8.47;74.20
73633;BME280;61927;50.080;14.418;2022-09-23T08:34:05;99929.28;;;8.50;73.97
73633;BME280;61927;50.080;14.418;2022-09-23T08:36:32;99929.88;;;8.57;73.96
73633;BME280;61927;50.080;14.418;2022-09-23T08:38:58;99930.50;;;8.62;73.30
73633;BME280;61927;50.080;14.418;2022-09-23T08:44:21;99921.28;;;8.70;73.44
73633;BME280;61927;50.080;14.418;2022-09-23T08:47:00;99921.88;;;8.77;73.90
73633;BME280;61927;50.080;14.418;2022-09-23T08:49:34;99926.94;;;8.82;74.06
73633;BME280;61927;50.080;14.418;2022-09-23T08:52:06;99925.00;;;8.85;73.74
73633;BME280;61927;50.080;14.418;2022-09-23T08:54:34;99917.84;;;8.87;74.20
73633;BME280;61927;50.080;14.418;2022-09-23T08:57:01;99919.13;;;8.97;73.61
73633;BME280;61927;50.080;14.418;2022-09-23T08:59:39;99915.41;;;9.01;74.03
73633;BME280;61927;50.080;14.418;2022-09-23T09:02:14;99914.66;;;9.17;73.94
73633;BME280;61927;50.080;14.418;2022-09-23T09:04:44;99910.63;;;9.27;73.56
73633;BME280;61927;50.080;14.418;2022-09-23T09:07:42;99904.97;;;9.34;73.32
73633;BME280;61927;50.080;14.418;2022-09-23T09:10:18;99900.22;;;9.41;73.05
73633;BME280;61927;50.080;14.418;2022-09-23T09:15:21;99891.34;;;9.59;73.05
73633;BME280;61927;50.080;14.418;2022-09-23T09:23:11;99887.28;;;9.69;72.26
73633;BME280;61927;50.080;14.418;2022-09-23T09:25:44;99883.78;;;9.69;72.61
73633;BME280;61927;50.080;14.418;2022-09-23T09:31:04;99876.34;;;9.93;72.32
73633;BME280;61927;50.080;14.418;2022-09-23T09:33:43;99869.72;;;10.01;72.68
73633;BME280;61927;50.080;14.418;2022-09-23T09:36:16;99878.13;;;10.10;72.19
73633;BME280;61927;50.080;14.418;2022-09-23T09:38:43;99866.91;;;10.22;72.14
73633;BME280;61927;50.080;14.418;2022-09-23T09:41:14;99869.66;;;10.36;71.18
73633;BME280;61927;50.080;14.418;2022-09-23T09:43:44;99867.94;;;10.35;71.47
73633;BME280;61927;50.080;14.418;2022-09-23T09:46:48;99862.47;;;10.38;71.42
73633;BME280;61927;50.080;14.418;2022-09-23T09:49:13;99858.53;;;10.45;71.16
73633;BME280;61927;50.080;14.418;2022-09-23T09:51:59;99846.47;;;10.55;69.70
73633;BME280;61927;50.080;14.418;2022-09-23T09:54:35;99849.56;;;10.63;69.53
73633;BME280;61927;50.080;14.418;2022-09-23T09:57:04;99849.91;;;10.73;69.89
73633;BME280;61927;50.080;14.418;2022-09-23T09:59:35;99846.75;;;10.82;69.79
73633;BME280;61927;50.080;14.418;2022-09-23T10:04:44;99840.88;;;11.07;66.77
73633;BME280;61927;50.080;14.418;2022-09-23T10:07:14;99833.25;;;11.17;66.13
73633;BME280;61927;50.080;14.418;2022-09-23T10:09:48;99823.53;;;11.31;65.83
73633;BME280;61927;50.080;14.418;2022-09-23T10:12:20;99824.09;;;11.37;65.60
73633;BME280;61927;50.080;14.418;2022-09-23T10:14:48;99822.78;;;11.44;64.10
73633;BME280;61927;50.080;14.418;2022-09-23T10:17:27;99819.22;;;11.59;62.28
73633;BME280;61927;50.080;14.418;2022-09-23T10:19:58;99817.22;;;11.62;62.44
73633;BME280;61927;50.080;14.418;2022-09-23T10:22:32;99814.38;;;11.65;61.82
73633;BME280;61927;50.080;14.418;2022-09-23T10:25:06;99812.16;;;11.88;60.89
73633;BME280;61927;50.080;14.418;2022-09-23T10:27:34;99810.56;;;12.00;60.86
73633;BME280;61927;50.080;14.418;2022-09-23T10:30:03;99808.94;;;11.97;60.86
73633;BME280;61927;50.080;14.418;2022-09-23T10:32:37;99807.63;;;12.04;58.94
73633;BME280;61927;50.080;14.418;2022-09-23T10:37:39;99803.22;;;12.17;59.84
73633;BME280;61927;50.080;14.418;2022-09-23T10:46:33;99792.94;;;12.40;59.72
73633;BME280;61927;50.080;14.418;2022-09-23T10:57:46;99781.66;;;12.63;60.00
73633;BME280;61927;50.080;14.418;2022-09-23T11:16:56;99747.94;;;13.03;55.38
73633;BME280;61927;50.080;14.418;2022-09-23T11:22:11;99742.09;;;13.11;57.14
73633;BME280;61927;50.080;14.418;2022-09-23T11:25:18;99730.94;;;13.18;55.70
73633;BME280;61927;50.080;14.418;2022-09-23T11:33:43;99726.59;;;13.68;53.33
73633;BME280;61927;50.080;14.418;2022-09-23T11:36:34;99714.63;;;13.74;52.69
73633;BME280;61927;50.080;14.418;2022-09-23T11:42:23;99716.53;;;13.97;54.45
73633;BME280;61927;50.080;14.418;2022-09-23T11:44:58;99712.78;;;14.00;54.13
73633;BME280;61927;50.080;14.418;2022-09-23T11:47:39;99709.69;;;14.06;54.96
73633;BME280;61927;50.080;14.418;2022-09-23T11:53:22;99698.75;;;14.21;52.41
73633;BME280;61927;50.080;14.418;2022-09-23T11:56:17;99695.63;;;14.28;52.86
73633;BME280;61927;50.080;14.418;2022-09-23T11:58:57;99692.72;;;14.43;51.31
73633;BME280;61927;50.080;14.418;2022-09-23T12:01:30;99682.94;;;14.55;50.50
73633;BME280;61927;50.080;14.418;2022-09-23T12:04:10;99676.91;;;14.64;50.14
73633;BME280;61927;50.080;14.418;2022-09-23T12:06:45;99676.50;;;14.81;50.52
73633;BME280;61927;50.080;14.418;2022-09-23T12:09:17;99671.19;;;14.93;51.23
73633;BME280;61927;50.080;14.418;2022-09-23T12:11:53;99662.09;;;14.95;50.30
73633;BME280;61927;50.080;14.418;2022-09-23T12:14:31;99666.22;;;14.99;49.77
73633;BME280;61927;50.080;14.418;2022-09-23T12:17:05;99658.22;;;14.99;49.82
73633;BME280;61927;50.080;14.418;2022-09-23T12:25:54;99644.41;;;15.28;48.84
73633;BME280;61927;50.080;14.418;2022-09-23T12:28:28;99649.41;;;15.32;48.90
73633;BME280;61927;50.080;14.418;2022-09-23T12:30:58;99648.69;;;15.41;48.82
73633;BME280;61927;50.080;14.418;2022-09-23T12:33:27;99642.13;;;15.45;48.55
73633;BME280;61927;50.080;14.418;2022-09-23T12:38:34;99637.00;;;15.42;48.93
73633;BME280;61927;50.080;14.418;2022-09-23T12:41:01;99629.13;;;15.41;48.35
73633;BME280;61927;50.080;14.418;2022-09-23T12:43:50;99629.47;;;15.36;48.07
73633;BME280;61927;50.080;14.418;2022-09-23T12:46:24;99629.72;;;15.33;48.05
73633;BME280;61927;50.080;14.418;2022-09-23T12:51:24;99627.53;;;15.49;48.31
73633;BME280;61927;50.080;14.418;2022-09-23T12:53:52;99623.06;;;15.61;44.71
73633;BME280;61927;50.080;14.418;2022-09-23T12:56:27;99625.84;;;15.82;37.49
73633;BME280;61927;50.080;14.418;2022-09-23T12:59:00;99614.38;;;16.02;36.42
73633;BME280;61927;50.080;14.418;2022-09-23T13:01:27;99621.03;;;16.19;37.74
73633;BME280;61927;50.080;14.418;2022-09-23T13:03:59;99616.47;;;16.31;36.68
73633;BME280;61927;50.080;14.418;2022-09-23T13:07:07;99611.59;;;16.36;35.62
73633;BME280;61927;50.080;14.418;2022-09-23T13:09:39;99607.22;;;16.35;35.79
73633;BME280;61927;50.080;14.418;2022-09-23T13:12:14;99613.09;;;16.29;34.41
73633;BME280;61927;50.080;14.418;2022-09-23T13:14:44;99604.97;;;16.19;35.37
73633;BME280;61927;50.080;14.418;2022-09-23T13:17:37;99595.97;;;16.09;36.60
73633;BME280;61927;50.080;14.418;2022-09-23T13:20:05;99593.34;;;15.98;37.18
73633;BME280;61927;50.080;14.418;2022-09-23T13:25:27;99582.66;;;15.87;37.63
73633;BME280;61927;50.080;14.418;2022-09-23T13:27:55;99585.72;;;15.82;37.26
73633;BME280;61927;50.080;14.418;2022-09-23T13:30:24;99579.75;;;15.78;37.64
73633;BME280;61927;50.080;14.418;2022-09-23T13:33:37;99575.59;;;15.86;37.26
73633;BME280;61927;50.080;14.418;2022-09-23T13:35:58;99569.13;;;15.99;37.08
73633;BME280;61927;50.080;14.418;2022-09-23T13:38:27;99567.56;;;15.97;36.77
73633;BME280;61927;50.080;14.418;2022-09-23T13:41:15;99562.91;;;15.99;36.94
73633;BME280;61927;50.080;14.418;2022-09-23T13:46:19;99557.91;;;16.05;37.76
73633;BME280;61927;50.080;14.418;2022-09-23T13:48:47;99555.09;;;16.07;38.08
73633;BME280;61927;50.080;14.418;2022-09-23T13:51:23;99543.34;;;15.98;37.60
73633;BME280;61927;50.080;14.418;2022-09-23T13:53:57;99540.91;;;15.95;38.30
73633;BME280;61927;50.080;14.418;2022-09-23T13:56:26;99545.16;;;15.98;38.71
73633;BME280;61927;50.080;14.418;2022-09-23T13:58:53;99541.13;;;16.03;39.23
73633;BME280;61927;50.080;14.418;2022-09-23T14:01:34;99539.78;;;16.09;38.27
73633;BME280;61927;50.080;14.418;2022-09-23T14:04:00;99537.81;;;16.11;38.33
73633;BME280;61927;50.080;14.418;2022-09-23T14:06:28;99543.97;;;16.23;38.96
73633;BME280;61927;50.080;14.418;2022-09-23T14:08:56;99533.25;;;16.23;40.19
73633;BME280;61927;50.080;14.418;2022-09-23T14:11:29;99535.94;;;16.23;38.90
73633;BME280;61927;50.080;14.418;2022-09-23T14:13:55;99543.97;;;16.23;38.28
73633;BME280;61927;50.080;14.418;2022-09-23T14:16:23;99540.06;;;16.27;38.93
73633;BME280;61927;50.080;14.418;2022-09-23T14:18:58;99533.72;;;16.28;37.76
73633;BME280;61927;50.080;14.418;2022-09-23T14:21:38;99532.75;;;16.29;38.63
73633;BME280;61927;50.080;14.418;2022-09-23T14:24:22;99522.75;;;16.31;38.31
73633;BME280;61927;50.080;14.418;2022-09-23T14:29:35;99521.47;;;16.46;38.12
73633;BME280;61927;50.080;14.418;2022-09-23T14:32:04;99524.00;;;16.47;38.36
73633;BME280;61927;50.080;14.418;2022-09-23T14:34:40;99517.16;;;16.55;37.31
73633;BME280;61927;50.080;14.418;2022-09-23T14:37:23;99522.44;;;16.45;38.17
73633;BME280;61927;50.080;14.418;2022-09-23T14:45:37;99509.44;;;16.61;37.63
73633;BME280;61927;50.080;14.418;2022-09-23T14:50:50;99503.31;;;16.70;37.47
73633;BME280;61927;50.080;14.418;2022-09-23T14:56:06;99492.13;;;16.86;37.44
73633;BME280;61927;50.080;14.418;2022-09-23T14:58:52;99491.59;;;16.92;36.96
73633;BME280;61927;50.080;14.418;2022-09-23T15:06:39;99484.78;;;16.88;38.67
73633;BME280;61927;50.080;14.418;2022-09-23T15:09:06;99481.13;;;16.89;38.58
73633;BME280;61927;50.080;14.418;2022-09-23T15:11:32;99486.19;;;16.83;38.26
73633;BME280;61927;50.080;14.418;2022-09-23T15:14:02;99485.00;;;16.75;39.04
73633;BME280;61927;50.080;14.418;2022-09-23T15:16:28;99480.91;;;16.71;37.96
73633;BME280;61927;50.080;14.418;2022-09-23T15:18:56;99479.34;;;16.69;38.09
73633;BME280;61927;50.080;14.418;2022-09-23T15:21:28;99483.13;;;16.66;38.02
73633;BME280;61927;50.080;14.418;2022-09-23T15:23:57;99484.47;;;16.61;38.36
73633;BME280;61927;50.080;14.418;2022-09-23T15:26:24;99481.78;;;16.61;37.27
73633;BME280;61927;50.080;14.418;2022-09-23T15:28:51;99476.69;;;16.58;37.77
73633;BME280;61927;50.080;14.418;2022-09-23T15:31:20;99481.03;;;16.49;37.52
73633;BME280;61927;50.080;14.418;2022-09-23T15:33:46;99483.38;;;16.42;38.04
73633;BME280;61927;50.080;14.418;2022-09-23T15:36:21;99477.75;;;16.45;38.55